createdAt,value
2023-11-26T00:01:22.107Z,17.34
2023-11-26T00:06:24.168Z,17.35
2023-11-26T00:11:26.948Z,17.31
2023-11-26T00:16:28.922Z,17.30
2023-11-26T00:21:31.265Z,17.34
2023-11-26T00:26:33.377Z,17.35
2023-11-26T00:31:35.337Z,17.34
2023-11-26T00:36:37.408Z,17.38
2023-11-26T00:41:39.763Z,17.34
2023-11-26T00:46:42.229Z,17.37
2023-11-26T00:51:44.693Z,17.35
2023-11-26T00:56:46.894Z,17.35
2023-11-26T01:01:49.131Z,17.36
2023-11-26T01:06:51.464Z,17.32
2023-11-26T01:11:53.470Z,17.38
2023-11-26T01:16:55.951Z,17.37
2023-11-26T01:21:57.894Z,17.33
2023-11-26T01:27:00.104Z,17.33
2023-11-26T01:32:02.162Z,17.38
2023-11-26T01:37:04.564Z,17.34
2023-11-26T01:42:06.677Z,17.32
2023-11-26T01:47:09.854Z,17.31
2023-11-26T01:52:14.594Z,17.31
2023-11-26T01:57:18.710Z,17.34
2023-11-26T02:02:21.097Z,17.28
2023-11-26T02:07:23.131Z,17.30
2023-11-26T02:12:25.233Z,17.30
2023-11-26T02:17:27.445Z,17.24
2023-11-26T02:22:29.631Z,17.32
2023-11-26T02:27:31.569Z,17.32
2023-11-26T02:32:33.853Z,17.31
2023-11-26T02:37:36.113Z,17.31
2023-11-26T02:42:38.792Z,17.27
2023-11-26T02:47:41.005Z,17.26
2023-11-26T02:52:43.220Z,17.26
2023-11-26T02:57:46.101Z,17.28
2023-11-26T03:02:48.878Z,17.26
2023-11-26T03:07:59.648Z,17.27
2023-11-26T03:13:14.209Z,17.29
2023-11-26T03:18:18.816Z,17.31
2023-11-26T03:23:21.445Z,17.27
2023-11-26T03:28:23.578Z,17.31
2023-11-26T03:33:28.269Z,17.28
2023-11-26T03:38:30.353Z,17.30
2023-11-26T03:43:32.613Z,17.28
2023-11-26T03:48:34.899Z,17.27
2023-11-26T03:53:36.916Z,17.27
2023-11-26T03:58:40.102Z,17.32
2023-11-26T04:03:42.226Z,17.31
2023-11-26T04:08:44.235Z,17.26
2023-11-26T04:13:46.490Z,17.24
2023-11-26T04:18:48.622Z,17.25
2023-11-26T04:23:50.616Z,17.25
2023-11-26T04:28:52.658Z,17.23
2023-11-26T04:33:54.711Z,17.22
2023-11-26T04:38:56.747Z,17.24
2023-11-26T04:43:59.032Z,17.26
2023-11-26T04:49:01.062Z,17.24
2023-11-26T04:54:03.313Z,17.24
2023-11-26T04:59:05.906Z,17.25
2023-11-26T05:04:07.879Z,17.24
2023-11-26T05:09:13.112Z,17.22
2023-11-26T05:14:15.121Z,17.23
2023-11-26T05:19:17.243Z,17.21
2023-11-26T05:24:19.268Z,17.21
2023-11-26T05:29:21.505Z,17.25
2023-11-26T05:34:23.517Z,17.25
2023-11-26T05:39:26.119Z,17.24
2023-11-26T05:44:28.326Z,17.24
2023-11-26T05:49:30.546Z,17.22
2023-11-26T05:54:32.679Z,17.25
2023-11-26T05:59:38.581Z,17.26
2023-11-26T06:04:40.529Z,17.21
2023-11-26T06:09:42.712Z,17.23
2023-11-26T06:14:44.998Z,17.22
2023-11-26T06:19:47.675Z,17.24
2023-11-26T06:24:49.815Z,17.20
2023-11-26T06:29:51.960Z,17.21
2023-11-26T06:34:54.295Z,17.20
2023-11-26T06:39:56.564Z,17.20
2023-11-26T06:44:58.588Z,17.20
2023-11-26T06:50:00.796Z,17.21
2023-11-26T06:55:02.997Z,17.22
2023-11-26T07:00:08.571Z,17.18
2023-11-26T07:05:10.796Z,17.20
2023-11-26T07:10:12.836Z,17.19
2023-11-26T07:15:15.166Z,17.16
2023-11-26T07:20:18.892Z,17.16
2023-11-26T07:25:20.945Z,17.19
2023-11-26T07:30:23.222Z,17.17
2023-11-26T07:35:25.351Z,17.15
2023-11-26T07:40:27.426Z,17.16
2023-11-26T07:45:30.412Z,17.16
2023-11-26T07:50:33.696Z,17.16
2023-11-26T07:55:37.699Z,17.12
2023-11-26T08:00:39.949Z,17.13
2023-11-26T08:05:41.929Z,17.17
2023-11-26T08:10:45.605Z,17.18
2023-11-26T08:15:48.825Z,17.14
2023-11-26T08:20:50.948Z,17.19
2023-11-26T08:25:58.231Z,17.19
2023-11-26T08:31:08.595Z,17.15
2023-11-26T08:36:12.206Z,17.10
2023-11-26T08:41:16.456Z,17.18
2023-11-26T08:46:19.896Z,17.20
2023-11-26T08:51:22.259Z,17.15
2023-11-26T08:56:24.355Z,16.96
2023-11-26T09:01:27.165Z,16.08
2023-11-26T09:06:29.260Z,16.42
2023-11-26T09:11:32.008Z,16.79
2023-11-26T09:16:38.172Z,16.93
2023-11-26T09:21:40.346Z,16.94
2023-11-26T09:26:42.520Z,16.95
2023-11-26T09:31:44.732Z,16.95
2023-11-26T09:36:47.315Z,16.90
2023-11-26T09:41:53.391Z,17.00
2023-11-26T09:46:55.999Z,17.06
2023-11-26T09:51:59.190Z,17.03
2023-11-26T09:57:01.978Z,17.09
2023-11-26T10:02:08.482Z,17.06
2023-11-26T10:07:11.808Z,17.07
2023-11-26T10:12:13.875Z,17.11
2023-11-26T10:17:16.275Z,17.07
2023-11-26T10:22:18.197Z,17.14
2023-11-26T10:27:20.255Z,17.12
2023-11-26T10:32:22.521Z,17.11
2023-11-26T10:37:24.613Z,17.12
2023-11-26T10:42:30.831Z,17.14
2023-11-26T10:47:36.425Z,17.18
2023-11-26T10:52:51.609Z,17.12
2023-11-26T10:58:04.265Z,17.11
2023-11-26T11:03:07.035Z,17.15
2023-11-26T11:08:09.710Z,17.14
2023-11-26T11:13:18.130Z,17.12
2023-11-26T11:18:29.325Z,17.13
2023-11-26T11:23:54.161Z,17.09
2023-11-26T11:28:57.598Z,17.12
2023-11-26T11:34:02.307Z,17.16
2023-11-26T11:39:05.560Z,17.17
2023-11-26T11:44:27.757Z,17.09
2023-11-26T11:49:48.317Z,17.06
2023-11-26T11:54:56.513Z,16.85
2023-11-26T12:00:00.933Z,16.86
2023-11-26T12:05:04.801Z,16.89
2023-11-26T12:10:09.242Z,17.22
2023-11-26T12:15:12.171Z,17.22
2023-11-26T12:20:14.268Z,17.25
2023-11-26T12:25:22.796Z,17.21
2023-11-26T12:30:25.954Z,17.07
2023-11-26T12:35:29.734Z,17.03
2023-11-26T12:40:32.523Z,17.16
2023-11-26T12:45:34.616Z,17.26
2023-11-26T12:50:44.242Z,17.24
2023-11-26T12:55:47.268Z,17.24
2023-11-26T13:00:49.762Z,17.26
2023-11-26T13:05:52.762Z,17.22
2023-11-26T13:10:59.170Z,17.24
2023-11-26T13:16:03.790Z,17.13
2023-11-26T13:21:08.317Z,17.24
2023-11-26T13:26:11.734Z,17.24
2023-11-26T13:31:14.514Z,17.21
2023-11-26T13:36:18.102Z,17.24
2023-11-26T13:41:22.092Z,17.28
2023-11-26T13:46:26.134Z,17.23
2023-11-26T13:51:28.586Z,17.21
2023-11-26T13:56:30.820Z,17.22
2023-11-26T14:01:33.255Z,17.22
2023-11-26T14:06:35.523Z,17.21
2023-11-26T14:11:37.783Z,17.19
2023-11-26T14:16:39.932Z,17.20
2023-11-26T14:21:42.148Z,17.21
2023-11-26T14:26:44.394Z,17.17
2023-11-26T14:31:46.430Z,17.21
2023-11-26T14:36:48.873Z,17.22
2023-11-26T14:41:50.970Z,17.20
2023-11-26T14:46:56.287Z,17.24
2023-11-26T14:51:58.253Z,17.20
2023-11-26T14:57:02.636Z,17.19
2023-11-26T15:02:04.880Z,17.19
2023-11-26T15:07:06.940Z,17.18
2023-11-26T15:12:09.127Z,17.19
2023-11-26T15:17:11.186Z,17.19
2023-11-26T15:22:13.297Z,17.20
2023-11-26T15:27:17.010Z,17.22
2023-11-26T15:32:19.083Z,17.23
2023-11-26T15:37:23.273Z,17.25
2023-11-26T15:42:26.712Z,17.24
2023-11-26T15:47:28.700Z,17.21
2023-11-26T15:52:30.707Z,17.19
2023-11-26T15:57:33.050Z,17.20
2023-11-26T16:02:35.235Z,17.19
2023-11-26T16:07:38.911Z,17.20
2023-11-26T16:12:40.904Z,17.23
2023-11-26T16:17:43.889Z,17.20
2023-11-26T16:22:46.542Z,17.19
2023-11-26T16:27:49.984Z,17.23
2023-11-26T16:32:53.642Z,17.21
2023-11-26T16:37:55.740Z,17.22
2023-11-26T16:42:57.822Z,17.21
2023-11-26T16:47:59.907Z,17.24
2023-11-26T16:53:01.991Z,17.21
2023-11-26T16:58:04.147Z,17.23
2023-11-26T17:03:06.430Z,17.22
2023-11-26T17:08:08.900Z,17.24
2023-11-26T17:13:12.553Z,17.22
2023-11-26T17:18:17.727Z,17.22
2023-11-26T17:23:20.244Z,17.21
2023-11-26T17:28:22.179Z,17.21
2023-11-26T17:33:24.585Z,17.21
2023-11-26T17:38:26.728Z,17.22
2023-11-26T17:43:28.821Z,17.20
2023-11-26T17:48:31.069Z,17.19
2023-11-26T17:53:33.619Z,17.19
2023-11-26T17:58:35.907Z,17.21
2023-11-26T18:03:38.103Z,17.19
2023-11-26T18:08:40.359Z,17.23
2023-11-26T18:13:42.832Z,17.20
2023-11-26T18:18:46.252Z,17.20
2023-11-26T18:23:49.519Z,17.21
2023-11-26T18:28:52.254Z,17.22
2023-11-26T18:33:54.177Z,17.25
2023-11-26T18:38:56.172Z,17.30
2023-11-26T18:43:58.272Z,17.21
2023-11-26T18:49:00.638Z,17.25
2023-11-26T18:54:04.311Z,17.17
2023-11-26T18:59:08.586Z,17.23
2023-11-26T19:04:10.962Z,17.20
2023-11-26T19:09:13.423Z,17.22
2023-11-26T19:14:15.913Z,17.23
2023-11-26T19:19:18.126Z,17.23
2023-11-26T19:24:20.239Z,17.01
2023-11-26T19:29:23.616Z,17.23
2023-11-26T19:34:26.164Z,17.34
2023-11-26T19:39:28.515Z,17.31
2023-11-26T19:44:30.932Z,17.34
2023-11-26T19:49:33.030Z,17.34
2023-11-26T19:54:35.302Z,17.25
2023-11-26T19:59:37.405Z,17.40
2023-11-26T20:04:39.645Z,17.38
2023-11-26T20:09:41.742Z,17.01
2023-11-26T20:14:45.505Z,16.62
2023-11-26T20:19:48.378Z,16.56
2023-11-26T20:24:50.404Z,16.70
2023-11-26T20:29:52.591Z,16.67
2023-11-26T20:34:54.607Z,16.64
2023-11-26T20:39:56.884Z,16.74
2023-11-26T20:44:59.234Z,16.83
2023-11-26T20:50:01.347Z,16.86
2023-11-26T20:55:10.274Z,16.86
2023-11-26T21:00:14.396Z,17.01
2023-11-26T21:05:16.500Z,16.83
2023-11-26T21:10:18.688Z,16.68
2023-11-26T21:15:20.858Z,16.76
2023-11-26T21:20:23.084Z,16.75
2023-11-26T21:25:25.405Z,16.89
2023-11-26T21:30:27.425Z,16.95
2023-11-26T21:35:29.492Z,17.10
2023-11-26T21:40:31.457Z,16.99
2023-11-26T21:45:33.608Z,16.82
2023-11-26T21:50:35.717Z,17.07
2023-11-26T21:55:37.856Z,17.52
2023-11-26T22:00:41.350Z,17.55
2023-11-26T22:05:43.757Z,17.55
2023-11-26T22:10:46.407Z,17.52
2023-11-26T22:15:48.353Z,17.53
2023-11-26T22:20:50.502Z,17.47
2023-11-26T22:25:52.549Z,17.45
2023-11-26T22:30:54.614Z,17.43
2023-11-26T22:35:56.640Z,17.43
2023-11-26T22:40:58.728Z,17.41
2023-11-26T22:46:00.826Z,17.46
2023-11-26T22:51:06.130Z,17.41
2023-11-26T22:56:09.246Z,17.33
2023-11-26T23:01:12.214Z,17.39
2023-11-26T23:06:15.045Z,17.39
2023-11-26T23:11:19.409Z,17.35
2023-11-26T23:16:22.952Z,17.38
2023-11-26T23:21:25.200Z,17.36
2023-11-26T23:26:27.244Z,17.35
2023-11-26T23:31:29.271Z,17.35
2023-11-26T23:36:31.546Z,17.32
2023-11-26T23:41:33.726Z,17.34
2023-11-26T23:46:35.756Z,17.33
2023-11-26T23:51:37.953Z,17.32
2023-11-26T23:56:40.811Z,17.33
